sensor_id;sensor_type;location;lat;lon;timestamp;pressure;altitude;pressure_sealevel;temperature;humidity
54592;BME280;40488;48.558;18.150;2023-05-25T10:26:26;99976.31;;;24.05;54.67
54592;BME280;40488;48.558;18.150;2023-05-25T10:28:59;99966.28;;;24.14;55.33
54592;BME280;40488;48.558;18.150;2023-05-25T10:31:31;99960.03;;;24.34;54.95
54592;BME280;40488;48.558;18.150;2023-05-25T10:34:04;99965.56;;;24.60;54.73
54592;BME280;40488;48.558;18.150;2023-05-25T10:36:34;99964.69;;;24.77;53.94
54592;BME280;40488;48.558;18.150;2023-05-25T10:39:06;99972.22;;;24.83;53.43
54592;BME280;40488;48.558;18.150;2023-05-25T10:41:36;99962.16;;;24.91;53.46
54592;BME280;40488;48.558;18.150;2023-05-25T10:44:05;99958.38;;;25.12;55.14
54592;BME280;40488;48.558;18.150;2023-05-25T10:46:34;99958.69;;;25.22;54.69
54592;BME280;40488;48.558;18.150;2023-05-25T10:49:03;99955.19;;;25.07;53.75
54592;BME280;40488;48.558;18.150;2023-05-25T10:51:39;99942.03;;;24.93;53.55
54592;BME280;40488;48.558;18.150;2023-05-25T10:54:12;99945.41;;;25.11;54.15
54592;BME280;40488;48.558;18.150;2023-05-25T10:59:41;99939.81;;;25.33;53.22
54592;BME280;40488;48.558;18.150;2023-05-25T11:02:11;99937.59;;;25.41;53.17
54592;BME280;40488;48.558;18.150;2023-05-25T11:04:41;99929.56;;;25.44;52.54
54592;BME280;40488;48.558;18.150;2023-05-25T11:07:15;99931.69;;;25.53;53.24
54592;BME280;40488;48.558;18.150;2023-05-25T11:09:57;99930.50;;;25.43;52.68
54592;BME280;40488;48.558;18.150;2023-05-25T11:12:26;99926.69;;;25.18;52.16
54592;BME280;40488;48.558;18.150;2023-05-25T11:15:12;99932.75;;;25.19;52.42
54592;BME280;40488;48.558;18.150;2023-05-25T11:20:29;99927.16;;;25.25;51.99
54592;BME280;40488;48.558;18.150;2023-05-25T11:22:58;99922.41;;;24.86;52.57
54592;BME280;40488;48.558;18.150;2023-05-25T11:25:38;99932.16;;;24.98;53.62
54592;BME280;40488;48.558;18.150;2023-05-25T11:28:08;99910.13;;;25.34;53.33
54592;BME280;40488;48.558;18.150;2023-05-25T11:30:40;99926.47;;;25.53;53.39
54592;BME280;40488;48.558;18.150;2023-05-25T11:33:11;99923.47;;;25.13;52.13
54592;BME280;40488;48.558;18.150;2023-05-25T11:35:39;99921.22;;;25.07;51.91
54592;BME280;40488;48.558;18.150;2023-05-25T11:38:12;99910.84;;;25.21;52.19
54592;BME280;40488;48.558;18.150;2023-05-25T11:40:42;99913.25;;;25.24;51.70
54592;BME280;40488;48.558;18.150;2023-05-25T11:43:11;99903.22;;;25.33;52.01
54592;BME280;40488;48.558;18.150;2023-05-25T11:45:42;99907.44;;;25.19;51.90
54592;BME280;40488;48.558;18.150;2023-05-25T11:48:12;99913.03;;;25.13;51.13
54592;BME280;40488;48.558;18.150;2023-05-25T11:50:42;99913.03;;;25.13;50.92
54592;BME280;40488;48.558;18.150;2023-05-25T11:53:11;99905.13;;;24.99;50.85
54592;BME280;40488;48.558;18.150;2023-05-25T11:55:47;99904.78;;;25.05;51.37
54592;BME280;40488;48.558;18.150;2023-05-25T11:58:32;99899.06;;;25.14;51.32
54592;BME280;40488;48.558;18.150;2023-05-25T12:01:16;99897.19;;;25.16;51.00
54592;BME280;40488;48.558;18.150;2023-05-25T12:03:46;99889.94;;;25.21;50.78
54592;BME280;40488;48.558;18.150;2023-05-25T12:06:27;99893.00;;;24.98;50.73
54592;BME280;40488;48.558;18.150;2023-05-25T12:08:56;99886.94;;;24.98;50.86
54592;BME280;40488;48.558;18.150;2023-05-25T12:11:27;99892.91;;;24.84;51.16
54592;BME280;40488;48.558;18.150;2023-05-25T12:13:56;99890.16;;;24.87;50.71
54592;BME280;40488;48.558;18.150;2023-05-25T12:16:27;99890.16;;;24.87;51.16
54592;BME280;40488;48.558;18.150;2023-05-25T12:18:57;99886.84;;;24.99;51.33
54592;BME280;40488;48.558;18.150;2023-05-25T12:21:26;99881.31;;;25.19;51.10
54592;BME280;40488;48.558;18.150;2023-05-25T12:23:56;99884.75;;;25.65;52.58
54592;BME280;40488;48.558;18.150;2023-05-25T12:26:25;99871.44;;;25.84;52.10
54592;BME280;40488;48.558;18.150;2023-05-25T12:28:57;99878.19;;;26.16;53.28
54592;BME280;40488;48.558;18.150;2023-05-25T12:31:30;99878.38;;;26.27;52.43
54592;BME280;40488;48.558;18.150;2023-05-25T12:34:07;99878.38;;;26.27;53.00
54592;BME280;40488;48.558;18.150;2023-05-25T12:36:41;99876.09;;;26.35;52.45
54592;BME280;40488;48.558;18.150;2023-05-25T12:39:12;99869.56;;;26.28;51.21
54592;BME280;40488;48.558;18.150;2023-05-25T12:41:46;99878.91;;;26.18;50.52
54592;BME280;40488;48.558;18.150;2023-05-25T12:44:21;99874.22;;;26.09;49.82
54592;BME280;40488;48.558;18.150;2023-05-25T12:46:52;99877.59;;;25.97;49.31
54592;BME280;40488;48.558;18.150;2023-05-25T12:49:28;99868.59;;;26.01;49.81
54592;BME280;40488;48.558;18.150;2023-05-25T12:51:58;99874.06;;;26.12;50.02
54592;BME280;40488;48.558;18.150;2023-05-25T12:54:34;99874.97;;;26.25;50.33
54592;BME280;40488;48.558;18.150;2023-05-25T12:57:04;99869.56;;;26.28;50.13
54592;BME280;40488;48.558;18.150;2023-05-25T12:59:34;99866.22;;;26.26;50.88
54592;BME280;40488;48.558;18.150;2023-05-25T13:02:05;99851.53;;;25.81;49.69
54592;BME280;40488;48.558;18.150;2023-05-25T13:04:36;99850.56;;;25.82;50.63
54592;BME280;40488;48.558;18.150;2023-05-25T13:07:07;99853.69;;;26.03;51.94
54592;BME280;40488;48.558;18.150;2023-05-25T13:09:37;99845.44;;;25.81;50.82
54592;BME280;40488;48.558;18.150;2023-05-25T13:12:06;99839.41;;;25.51;50.17
54592;BME280;40488;48.558;18.150;2023-05-25T13:14:35;99851.56;;;25.52;50.51
54592;BME280;40488;48.558;18.150;2023-05-25T13:17:06;99846.47;;;25.64;50.24
54592;BME280;40488;48.558;18.150;2023-05-25T13:19:35;99851.75;;;25.63;49.82
54592;BME280;40488;48.558;18.150;2023-05-25T13:22:04;99843.28;;;25.87;51.05
54592;BME280;40488;48.558;18.150;2023-05-25T13:24:34;99844.31;;;25.99;50.32
54592;BME280;40488;48.558;18.150;2023-05-25T13:27:02;99838.28;;;25.99;49.78
54592;BME280;40488;48.558;18.150;2023-05-25T13:29:31;99840.22;;;25.81;49.23
54592;BME280;40488;48.558;18.150;2023-05-25T13:32:00;99833.38;;;25.35;49.61
54592;BME280;40488;48.558;18.150;2023-05-25T13:34:30;99838.19;;;25.12;50.21
54592;BME280;40488;48.558;18.150;2023-05-25T13:37:00;99831.91;;;25.30;50.91
54592;BME280;40488;48.558;18.150;2023-05-25T13:39:28;99819.75;;;25.29;50.30
54592;BME280;40488;48.558;18.150;2023-05-25T13:41:57;99827.63;;;25.44;50.33
54592;BME280;40488;48.558;18.150;2023-05-25T13:44:26;99815.94;;;25.65;51.44
54592;BME280;40488;48.558;18.150;2023-05-25T13:46:55;99795.53;;;25.56;50.32
54592;BME280;40488;48.558;18.150;2023-05-25T13:49:24;99807.13;;;25.52;50.43
54592;BME280;40488;48.558;18.150;2023-05-25T13:51:54;99805.59;;;25.34;50.29
54592;BME280;40488;48.558;18.150;2023-05-25T13:54:23;99800.84;;;25.40;50.60
54592;BME280;40488;48.558;18.150;2023-05-25T13:56:55;99804.47;;;25.38;50.68
54592;BME280;40488;48.558;18.150;2023-05-25T13:59:24;99804.50;;;25.52;50.74
54592;BME280;40488;48.558;18.150;2023-05-25T14:01:53;99808.28;;;25.76;52.24
54592;BME280;40488;48.558;18.150;2023-05-25T14:04:22;99801.44;;;25.87;51.58
54592;BME280;40488;48.558;18.150;2023-05-25T14:06:51;99803.78;;;25.92;51.66
54592;BME280;40488;48.558;18.150;2023-05-25T14:09:23;99795.56;;;25.84;51.80
54592;BME280;40488;48.558;18.150;2023-05-25T14:11:52;99799.28;;;25.80;52.13
54592;BME280;40488;48.558;18.150;2023-05-25T14:14:21;99802.47;;;25.57;51.88
54592;BME280;40488;48.558;18.150;2023-05-25T14:16:58;99794.81;;;25.54;52.80
54592;BME280;40488;48.558;18.150;2023-05-25T14:19:27;99791.44;;;25.66;53.33
54592;BME280;40488;48.558;18.150;2023-05-25T14:21:56;99785.88;;;25.72;52.71
54592;BME280;40488;48.558;18.150;2023-05-25T14:24:40;99784.00;;;25.74;52.13
54592;BME280;40488;48.558;18.150;2023-05-25T14:27:09;99784.44;;;25.52;51.29
54592;BME280;40488;48.558;18.150;2023-05-25T14:29:38;99784.97;;;25.43;50.96
54592;BME280;40488;48.558;18.150;2023-05-25T14:32:07;99785.59;;;25.33;50.35
54592;BME280;40488;48.558;18.150;2023-05-25T14:34:36;99778.03;;;25.28;50.64
54592;BME280;40488;48.558;18.150;2023-05-25T14:37:05;99778.66;;;25.17;50.93
54592;BME280;40488;48.558;18.150;2023-05-25T14:39:33;99781.09;;;25.20;50.74
54592;BME280;40488;48.558;18.150;2023-05-25T14:42:05;99787.25;;;25.19;50.36
54592;BME280;40488;48.558;18.150;2023-05-25T14:44:34;99783.88;;;25.17;50.19
54592;BME280;40488;48.558;18.150;2023-05-25T14:47:04;99780.53;;;25.15;50.39
54592;BME280;40488;48.558;18.150;2023-05-25T14:49:33;99779.03;;;25.11;50.54
54592;BME280;40488;48.558;18.150;2023-05-25T14:52:02;99781.66;;;25.11;50.63
54592;BME280;40488;48.558;18.150;2023-05-25T14:54:31;99774.09;;;25.07;50.11
54592;BME280;40488;48.558;18.150;2023-05-25T14:57:00;99772.25;;;24.93;50.09
54592;BME280;40488;48.558;18.150;2023-05-25T14:59:31;99785.13;;;24.96;50.42
54592;BME280;40488;48.558;18.150;2023-05-25T15:01:59;99774.81;;;25.09;50.37
54592;BME280;40488;48.558;18.150;2023-05-25T15:04:28;99776.28;;;25.28;50.81
54592;BME280;40488;48.558;18.150;2023-05-25T15:06:57;99779.63;;;25.30;50.75
54592;BME280;40488;48.558;18.150;2023-05-25T15:09:27;99775.53;;;25.26;50.13
54592;BME280;40488;48.558;18.150;2023-05-25T15:11:55;99767.59;;;24.98;49.82
54592;BME280;40488;48.558;18.150;2023-05-25T15:14:24;99769.00;;;24.90;49.99
54592;BME280;40488;48.558;18.150;2023-05-25T15:16:55;99766.66;;;24.85;50.62
54592;BME280;40488;48.558;18.150;2023-05-25T15:19:24;99721.38;;;24.55;50.79
54592;BME280;40488;48.558;18.150;2023-05-25T15:21:55;99769.50;;;24.65;50.76
54592;BME280;40488;48.558;18.150;2023-05-25T15:24:24;99770.63;;;24.45;50.75
54592;BME280;40488;48.558;18.150;2023-05-25T15:26:53;99770.41;;;24.34;50.93
54592;BME280;40488;48.558;18.150;2023-05-25T15:29:22;99777.16;;;24.23;51.21
54592;BME280;40488;48.558;18.150;2023-05-25T15:31:51;99780.81;;;24.19;51.20
54592;BME280;40488;48.558;18.150;2023-05-25T15:34:21;99780.66;;;24.22;51.94
54592;BME280;40488;48.558;18.150;2023-05-25T15:36:50;99774.59;;;24.21;52.35
54592;BME280;40488;48.558;18.150;2023-05-25T15:39:19;99775.81;;;24.16;52.64
54592;BME280;40488;48.558;18.150;2023-05-25T15:41:48;99767.03;;;24.17;53.07
54592;BME280;40488;48.558;18.150;2023-05-25T15:44:17;99774.25;;;24.12;52.54
54592;BME280;40488;48.558;18.150;2023-05-25T15:46:46;99777.81;;;24.11;52.47
54592;BME280;40488;48.558;18.150;2023-05-25T15:49:15;99767.38;;;24.11;52.98
54592;BME280;40488;48.558;18.150;2023-05-25T15:51:45;99771.66;;;24.12;53.18
54592;BME280;40488;48.558;18.150;2023-05-25T15:54:14;99767.38;;;24.11;53.34
54592;BME280;40488;48.558;18.150;2023-05-25T15:56:43;99765.25;;;24.02;53.37
54592;BME280;40488;48.558;18.150;2023-05-25T15:59:12;99766.00;;;24.04;53.47
54592;BME280;40488;48.558;18.150;2023-05-25T16:01:41;99767.66;;;24.05;53.47
54592;BME280;40488;48.558;18.150;2023-05-25T16:04:11;99770.75;;;24.13;53.62
54592;BME280;40488;48.558;18.150;2023-05-25T16:06:40;99772.59;;;24.11;54.05
54592;BME280;40488;48.558;18.150;2023-05-25T16:09:10;99769.38;;;24.06;53.94
54592;BME280;40488;48.558;18.150;2023-05-25T16:11:39;99774.13;;;23.97;53.54
54592;BME280;40488;48.558;18.150;2023-05-25T16:14:07;99775.34;;;23.92;53.24
54592;BME280;40488;48.558;18.150;2023-05-25T16:16:36;99773.53;;;23.92;53.18
54592;BME280;40488;48.558;18.150;2023-05-25T16:19:05;99772.72;;;23.92;53.60
54592;BME280;40488;48.558;18.150;2023-05-25T16:21:35;99774.88;;;23.84;53.90
54592;BME280;40488;48.558;18.150;2023-05-25T16:24:04;99780.94;;;23.84;54.54
54592;BME280;40488;48.558;18.150;2023-05-25T16:26:34;99775.91;;;23.81;54.48
54592;BME280;40488;48.558;18.150;2023-05-25T16:29:03;99788.31;;;23.76;54.21
54592;BME280;40488;48.558;18.150;2023-05-25T16:31:32;99781.75;;;23.69;54.44
54592;BME280;40488;48.558;18.150;2023-05-25T16:34:01;99783.09;;;23.61;54.96
54592;BME280;40488;48.558;18.150;2023-05-25T16:36:30;99785.34;;;23.51;55.14
54592;BME280;40488;48.558;18.150;2023-05-25T16:38:59;99786.56;;;23.44;55.43
54592;BME280;40488;48.558;18.150;2023-05-25T16:41:28;99789.59;;;23.52;55.51
54592;BME280;40488;48.558;18.150;2023-05-25T16:43:58;99792.53;;;23.46;55.75
54592;BME280;40488;48.558;18.150;2023-05-25T16:46:27;99795.44;;;23.40;55.95
54592;BME280;40488;48.558;18.150;2023-05-25T16:48:56;99792.22;;;23.35;56.35
54592;BME280;40488;48.558;18.150;2023-05-25T16:51:25;99790.53;;;23.34;56.72
54592;BME280;40488;48.558;18.150;2023-05-25T16:53:54;99789.84;;;23.30;56.54
54592;BME280;40488;48.558;18.150;2023-05-25T16:56:24;99792.69;;;23.26;56.73
54592;BME280;40488;48.558;18.150;2023-05-25T16:58:53;99788.56;;;23.22;56.89
54592;BME280;40488;48.558;18.150;2023-05-25T17:01:23;99782.88;;;23.14;57.18
54592;BME280;40488;48.558;18.150;2023-05-25T17:03:52;99785.84;;;23.06;57.32
54592;BME280;40488;48.558;18.150;2023-05-25T17:06:21;99787.78;;;23.03;57.58
54592;BME280;40488;48.558;18.150;2023-05-25T17:08:50;99789.63;;;23.01;57.85
54592;BME280;40488;48.558;18.150;2023-05-25T17:11:19;99793.38;;;22.95;58.28
54592;BME280;40488;48.558;18.150;2023-05-25T17:13:52;99792.84;;;22.89;58.08
54592;BME280;40488;48.558;18.150;2023-05-25T17:16:22;99787.78;;;22.86;57.94
54592;BME280;40488;48.558;18.150;2023-05-25T17:18:52;99788.22;;;22.77;57.99
54592;BME280;40488;48.558;18.150;2023-05-25T17:21:21;99781.31;;;22.76;58.03
54592;BME280;40488;48.558;18.150;2023-05-25T17:23:49;99785.16;;;22.68;58.19
54592;BME280;40488;48.558;18.150;2023-05-25T17:26:18;99785.38;;;22.64;58.29
54592;BME280;40488;48.558;18.150;2023-05-25T17:28:47;99779.50;;;22.59;58.31
54592;BME280;40488;48.558;18.150;2023-05-25T17:31:16;99780.63;;;22.53;58.63
54592;BME280;40488;48.558;18.150;2023-05-25T17:33:46;99779.41;;;22.43;58.66
54592;BME280;40488;48.558;18.150;2023-05-25T17:36:15;99793.47;;;22.39;59.03
54592;BME280;40488;48.558;18.150;2023-05-25T17:38:44;99783.34;;;22.33;59.64
54592;BME280;40488;48.558;18.150;2023-05-25T17:41:13;99770.00;;;22.22;59.59
54592;BME280;40488;48.558;18.150;2023-05-25T17:43:42;99775.19;;;22.22;59.81
54592;BME280;40488;48.558;18.150;2023-05-25T17:46:10;99776.34;;;22.17;60.16
54592;BME280;40488;48.558;18.150;2023-05-25T17:48:39;99779.16;;;22.12;59.98
54592;BME280;40488;48.558;18.150;2023-05-25T17:51:10;99782.13;;;22.05;60.22
54592;BME280;40488;48.558;18.150;2023-05-25T17:53:39;99781.38;;;22.01;60.41
54592;BME280;40488;48.558;18.150;2023-05-25T17:56:07;99786.88;;;21.95;60.39
54592;BME280;40488;48.558;18.150;2023-05-25T17:58:36;99779.75;;;21.80;60.58
54592;BME280;40488;48.558;18.150;2023-05-25T18:01:05;99770.66;;;21.70;61.04
54592;BME280;40488;48.558;18.150;2023-05-25T18:03:34;99792.09;;;21.75;61.00
54592;BME280;40488;48.558;18.150;2023-05-25T18:06:04;99788.94;;;21.68;61.12
54592;BME280;40488;48.558;18.150;2023-05-25T18:08:34;99783.16;;;21.62;61.12
54592;BME280;40488;48.558;18.150;2023-05-25T18:11:03;99776.41;;;21.58;61.19
54592;BME280;40488;48.558;18.150;2023-05-25T18:13:32;99780.19;;;21.51;61.00
54592;BME280;40488;48.558;18.150;2023-05-25T18:16:01;99778.84;;;21.42;61.47
54592;BME280;40488;48.558;18.150;2023-05-25T18:18:29;99775.63;;;21.35;61.20
54592;BME280;40488;48.558;18.150;2023-05-25T18:20:58;99781.22;;;21.26;61.54
54592;BME280;40488;48.558;18.150;2023-05-25T18:23:27;99781.50;;;21.20;61.27
54592;BME280;40488;48.558;18.150;2023-05-25T18:25:57;99782.69;;;21.13;61.44
54592;BME280;40488;48.558;18.150;2023-05-25T18:28:26;99782.03;;;21.08;61.32
54592;BME280;40488;48.558;18.150;2023-05-25T18:30:57;99779.78;;;20.99;61.34
54592;BME280;40488;48.558;18.150;2023-05-25T18:33:26;99786.13;;;20.92;61.30
54592;BME280;40488;48.558;18.150;2023-05-25T18:35:55;99783.00;;;20.84;61.59
54592;BME280;40488;48.558;18.150;2023-05-25T18:38:24;99788.41;;;20.78;61.34
54592;BME280;40488;48.558;18.150;2023-05-25T18:40:53;99802.44;;;20.74;61.36
54592;BME280;40488;48.558;18.150;2023-05-25T18:43:23;99797.50;;;20.68;61.54
54592;BME280;40488;48.558;18.150;2023-05-25T18:45:52;99798.50;;;20.64;61.63
54592;BME280;40488;48.558;18.150;2023-05-25T18:48:20;99812.75;;;20.54;61.59
54592;BME280;40488;48.558;18.150;2023-05-25T18:50:50;99801.84;;;20.46;61.41
54592;BME280;40488;48.558;18.150;2023-05-25T18:53:19;99812.44;;;20.40;61.65
54592;BME280;40488;48.558;18.150;2023-05-25T18:55:47;99811.13;;;20.30;61.91
54592;BME280;40488;48.558;18.150;2023-05-25T18:58:16;99814.84;;;20.23;61.72
54592;BME280;40488;48.558;18.150;2023-05-25T19:00:47;99822.97;;;20.12;61.89
54592;BME280;40488;48.558;18.150;2023-05-25T19:03:16;99824.16;;;20.03;62.14
54592;BME280;40488;48.558;18.150;2023-05-25T19:05:46;99832.94;;;19.99;62.48
54592;BME280;40488;48.558;18.150;2023-05-25T19:08:15;99842.81;;;19.90;62.62
54592;BME280;40488;48.558;18.150;2023-05-25T19:10:43;99849.88;;;19.85;62.96
54592;BME280;40488;48.558;18.150;2023-05-25T19:13:12;99850.84;;;19.82;63.06
54592;BME280;40488;48.558;18.150;2023-05-25T19:15:41;99850.16;;;19.77;63.13
54592;BME280;40488;48.558;18.150;2023-05-25T19:18:12;99857.22;;;19.74;63.40
54592;BME280;40488;48.558;18.150;2023-05-25T19:20:41;99855.84;;;19.64;63.48
54592;BME280;40488;48.558;18.150;2023-05-25T19:23:10;99856.06;;;19.58;63.88
54592;BME280;40488;48.558;18.150;2023-05-25T19:25:39;99859.63;;;19.54;64.18
54592;BME280;40488;48.558;18.150;2023-05-25T19:28:08;99864.97;;;19.49;64.22
54592;BME280;40488;48.558;18.150;2023-05-25T19:30:37;99864.28;;;19.44;64.19
54592;BME280;40488;48.558;18.150;2023-05-25T19:33:06;99870.47;;;19.40;64.28
54592;BME280;40488;48.558;18.150;2023-05-25T19:35:37;99869.66;;;19.38;64.56
54592;BME280;40488;48.558;18.150;2023-05-25T19:38:08;99877.56;;;19.33;64.42
54592;BME280;40488;48.558;18.150;2023-05-25T19:40:36;99872.78;;;19.21;64.71
54592;BME280;40488;48.558;18.150;2023-05-25T19:43:06;99877.19;;;19.18;64.97
54592;BME280;40488;48.558;18.150;2023-05-25T19:45:34;99875.63;;;19.14;65.12
54592;BME280;40488;48.558;18.150;2023-05-25T19:48:03;99882.69;;;19.09;65.22
54592;BME280;40488;48.558;18.150;2023-05-25T19:50:32;99887.38;;;18.98;65.13
54592;BME280;40488;48.558;18.150;2023-05-25T19:53:02;99884.06;;;18.93;65.45
54592;BME280;40488;48.558;18.150;2023-05-25T19:55:32;99880.72;;;18.89;65.30
54592;BME280;40488;48.558;18.150;2023-05-25T19:58:03;99877.34;;;18.87;65.40
54592;BME280;40488;48.558;18.150;2023-05-25T20:00:31;99888.84;;;18.79;65.15
54592;BME280;40488;48.558;18.150;2023-05-25T20:03:01;99889.00;;;18.72;65.11
54592;BME280;40488;48.558;18.150;2023-05-25T20:05:30;99893.31;;;18.72;65.00
54592;BME280;40488;48.558;18.150;2023-05-25T20:07:59;99895.13;;;18.70;65.08
54592;BME280;40488;48.558;18.150;2023-05-25T20:10:29;99905.69;;;18.62;64.83
54592;BME280;40488;48.558;18.150;2023-05-25T20:12:58;99906.00;;;18.52;64.92
54592;BME280;40488;48.558;18.150;2023-05-25T20:15:27;99901.09;;;18.41;65.17
54592;BME280;40488;48.558;18.150;2023-05-25T20:17:56;99903.97;;;18.32;65.47
54592;BME280;40488;48.558;18.150;2023-05-25T20:20:25;99900.88;;;18.20;65.80
54592;BME280;40488;48.558;18.150;2023-05-25T20:22:54;99910.34;;;18.19;66.12
54592;BME280;40488;48.558;18.150;2023-05-25T20:25:23;99909.63;;;18.14;66.09
54592;BME280;40488;48.558;18.150;2023-05-25T20:27:53;99909.91;;;18.05;66.37
54592;BME280;40488;48.558;18.150;2023-05-25T20:30:21;99904.78;;;18.03;66.48
54592;BME280;40488;48.558;18.150;2023-05-25T20:32:51;99910.16;;;17.96;66.53
54592;BME280;40488;48.558;18.150;2023-05-25T20:35:20;99907.63;;;17.94;66.81
54592;BME280;40488;48.558;18.150;2023-05-25T20:37:49;99912.91;;;17.90;66.70
54592;BME280;40488;48.558;18.150;2023-05-25T20:40:18;99913.84;;;17.87;66.88
54592;BME280;40488;48.558;18.150;2023-05-25T20:42:47;99922.59;;;17.82;67.25
54592;BME280;40488;48.558;18.150;2023-05-25T20:45:17;99914.03;;;17.80;67.08
54592;BME280;40488;48.558;18.150;2023-05-25T20:47:46;99928.72;;;17.78;67.38
54592;BME280;40488;48.558;18.150;2023-05-25T20:50:15;99926.94;;;17.80;67.40
54592;BME280;40488;48.558;18.150;2023-05-25T20:52:44;99916.94;;;17.68;67.56
54592;BME280;40488;48.558;18.150;2023-05-25T20:55:12;99927.25;;;17.68;67.57
54592;BME280;40488;48.558;18.150;2023-05-25T20:57:41;99928.31;;;17.61;67.53
54592;BME280;40488;48.558;18.150;2023-05-25T21:00:11;99933.53;;;17.58;67.79
54592;BME280;40488;48.558;18.150;2023-05-25T21:02:43;99926.78;;;17.54;67.89
54592;BME280;40488;48.558;18.150;2023-05-25T21:05:13;99925.06;;;17.53;67.74
54592;BME280;40488;48.558;18.150;2023-05-25T21:07:42;99930.22;;;17.53;68.16
54592;BME280;40488;48.558;18.150;2023-05-25T21:10:11;99936.25;;;17.52;68.18
54592;BME280;40488;48.558;18.150;2023-05-25T21:12:40;99925.16;;;17.48;68.08
54592;BME280;40488;48.558;18.150;2023-05-25T21:15:09;99930.41;;;17.43;68.52
54592;BME280;40488;48.558;18.150;2023-05-25T21:17:38;99928.13;;;17.31;68.58
54592;BME280;40488;48.558;18.150;2023-05-25T21:20:09;99927.47;;;17.23;69.16
54592;BME280;40488;48.558;18.150;2023-05-25T21:22:38;99937.03;;;17.18;69.25
54592;BME280;40488;48.558;18.150;2023-05-25T21:25:08;99935.47;;;17.13;69.38
54592;BME280;40488;48.558;18.150;2023-05-25T21:27:38;99929.53;;;17.09;69.70
54592;BME280;40488;48.558;18.150;2023-05-25T21:30:07;99931.34;;;17.04;69.94
54592;BME280;40488;48.558;18.150;2023-05-25T21:32:36;99934.09;;;16.97;70.06
54592;BME280;40488;48.558;18.150;2023-05-25T21:35:05;99937.66;;;16.93;70.13
54592;BME280;40488;48.558;18.150;2023-05-25T21:37:35;99939.34;;;16.94;70.16
54592;BME280;40488;48.558;18.150;2023-05-25T21:40:05;99943.88;;;16.84;70.36
54592;BME280;40488;48.558;18.150;2023-05-25T21:42:34;99943.06;;;16.81;70.82
54592;BME280;40488;48.558;18.150;2023-05-25T21:45:03;99940.53;;;16.79;70.99
54592;BME280;40488;48.558;18.150;2023-05-25T21:47:32;99938.81;;;16.78;70.77
54592;BME280;40488;48.558;18.150;2023-05-25T21:50:02;99949.19;;;16.75;70.71
54592;BME280;40488;48.558;18.150;2023-05-25T21:52:31;99955.22;;;16.75;71.04
54592;BME280;40488;48.558;18.150;2023-05-25T21:55:02;99954.28;;;16.78;71.14
54592;BME280;40488;48.558;18.150;2023-05-25T21:57:30;99952.66;;;16.74;71.32
54592;BME280;40488;48.558;18.150;2023-05-25T21:59:59;99947.78;;;16.62;71.57
54592;BME280;40488;48.558;18.150;2023-05-25T22:02:38;99956.59;;;16.49;71.82
54592;BME280;40488;48.558;18.150;2023-05-25T22:05:07;99961.94;;;16.40;72.28
54592;BME280;40488;48.558;18.150;2023-05-25T22:07:36;99956.84;;;16.37;72.25
54592;BME280;40488;48.558;18.150;2023-05-25T22:10:07;99952.66;;;16.31;72.71
54592;BME280;40488;48.558;18.150;2023-05-25T22:12:36;99946.91;;;16.19;73.33
54592;BME280;40488;48.558;18.150;2023-05-25T22:15:06;99951.19;;;16.18;73.24
54592;BME280;40488;48.558;18.150;2023-05-25T22:17:35;99947.75;;;16.19;73.71
54592;BME280;40488;48.558;18.150;2023-05-25T22:20:04;99957.25;;;16.16;73.54
54592;BME280;40488;48.558;18.150;2023-05-25T22:22:34;99960.81;;;16.08;74.09
54592;BME280;40488;48.558;18.150;2023-05-25T22:25:05;99954.00;;;16.07;74.28
54592;BME280;40488;48.558;18.150;2023-05-25T22:27:35;99947.13;;;16.06;73.93
54592;BME280;40488;48.558;18.150;2023-05-25T22:30:06;99941.13;;;16.06;73.96
54592;BME280;40488;48.558;18.150;2023-05-25T22:32:35;99949.53;;;16.16;73.90
54592;BME280;40488;48.558;18.150;2023-05-25T22:35:05;99951.38;;;16.09;74.04
54592;BME280;40488;48.558;18.150;2023-05-25T22:37:34;99950.47;;;16.10;74.07
54592;BME280;40488;48.558;18.150;2023-05-25T22:40:04;99954.91;;;16.05;73.75
54592;BME280;40488;48.558;18.150;2023-05-25T22:42:34;99953.28;;;15.99;73.87
54592;BME280;40488;48.558;18.150;2023-05-25T22:45:04;99949.00;;;15.98;73.81
54592;BME280;40488;48.558;18.150;2023-05-25T22:47:33;99946.47;;;15.97;73.84
54592;BME280;40488;48.558;18.150;2023-05-25T22:50:03;99937.91;;;15.93;73.82
54592;BME280;40488;48.558;18.150;2023-05-25T22:52:31;99940.63;;;15.87;74.15
54592;BME280;40488;48.558;18.150;2023-05-25T22:55:00;99939.72;;;15.88;74.21
54592;BME280;40488;48.558;18.150;2023-05-25T22:57:29;99944.09;;;15.85;74.59
54592;BME280;40488;48.558;18.150;2023-05-25T23:00:00;99940.66;;;15.84;74.72
54592;BME280;40488;48.558;18.150;2023-05-25T23:02:30;99934.66;;;15.84;74.67
54592;BME280;40488;48.558;18.150;2023-05-25T23:04:59;99940.72;;;15.81;74.76
54592;BME280;40488;48.558;18.150;2023-05-25T23:07:28;99945.00;;;15.82;74.26
54592;BME280;40488;48.558;18.150;2023-05-25T23:09:57;99944.22;;;15.77;74.96
54592;BME280;40488;48.558;18.150;2023-05-25T23:12:26;99946.06;;;15.69;74.73
54592;BME280;40488;48.558;18.150;2023-05-25T23:14:55;99944.44;;;15.65;75.08
54592;BME280;40488;48.558;18.150;2023-05-25T23:17:27;99953.06;;;15.64;74.87
54592;BME280;40488;48.558;18.150;2023-05-25T23:19:55;99951.34;;;15.63;75.06
54592;BME280;40488;48.558;18.150;2023-05-25T23:22:24;99953.09;;;15.61;75.21
54592;BME280;40488;48.558;18.150;2023-05-25T23:24:53;99959.25;;;15.51;75.94
54592;BME280;40488;48.558;18.150;2023-05-25T23:27:22;99948.19;;;15.46;75.88
54592;BME280;40488;48.558;18.150;2023-05-25T23:29:51;99961.88;;;15.48;76.05
54592;BME280;40488;48.558;18.150;2023-05-25T23:32:20;99953.38;;;15.45;75.77
54592;BME280;40488;48.558;18.150;2023-05-25T23:34:50;99953.28;;;15.49;75.92